createdAt,value
2017-07-31T00:00:14.003Z,19.50
2017-07-31T00:02:42.278Z,19.60
2017-07-31T00:05:10.606Z,19.50
2017-07-31T00:07:39.289Z,19.50
2017-07-31T00:10:08.339Z,19.50
2017-07-31T00:12:36.658Z,19.50
2017-07-31T00:15:05.704Z,19.50
2017-07-31T00:20:03.900Z,19.40
2017-07-31T00:22:33.309Z,19.40
2017-07-31T00:27:31.147Z,19.50
2017-07-31T00:30:00.190Z,19.40
2017-07-31T00:34:59.679Z,19.40
2017-07-31T00:37:27.950Z,19.30
2017-07-31T00:39:57.729Z,19.40
2017-07-31T00:42:26.066Z,19.30
2017-07-31T00:44:55.846Z,19.30
2017-07-31T00:47:24.134Z,19.20
2017-07-31T00:49:52.466Z,19.20
2017-07-31T00:52:20.756Z,19.20
2017-07-31T00:54:49.050Z,19.20
2017-07-31T00:57:17.388Z,19.10
2017-07-31T00:59:47.165Z,19.10
2017-07-31T01:02:15.459Z,19.10
2017-07-31T01:04:44.058Z,19.10
2017-07-31T01:07:13.462Z,19.20
2017-07-31T01:09:41.771Z,19.10
2017-07-31T01:12:10.086Z,19.10
2017-07-31T01:14:39.136Z,19.10
2017-07-31T01:19:43.457Z,19.00
2017-07-31T01:24:41.626Z,19.00
2017-07-31T01:29:39.863Z,19.00
2017-07-31T01:32:08.150Z,19.00
2017-07-31T01:37:06.393Z,19.10
2017-07-31T01:39:34.662Z,19.10
2017-07-31T01:42:03.766Z,19.10
2017-07-31T01:44:33.171Z,19.20
2017-07-31T01:49:31.794Z,19.10
2017-07-31T01:52:00.837Z,19.20
2017-07-31T01:54:29.874Z,19.20
2017-07-31T01:56:58.326Z,19.10
2017-07-31T01:59:27.367Z,19.10
2017-07-31T02:01:55.643Z,19.20
2017-07-31T02:04:23.975Z,19.20
2017-07-31T02:06:53.772Z,19.10
2017-07-31T02:09:22.066Z,19.00
2017-07-31T02:11:50.424Z,19.00
2017-07-31T02:16:48.208Z,18.90
2017-07-31T02:19:17.308Z,18.90
2017-07-31T02:21:46.751Z,18.90
2017-07-31T02:24:15.022Z,18.80
2017-07-31T02:26:43.603Z,18.80
2017-07-31T02:31:42.943Z,18.80
2017-07-31T02:34:11.611Z,18.80
2017-07-31T02:36:39.897Z,18.80
2017-07-31T02:39:09.004Z,18.90
2017-07-31T02:44:07.194Z,18.90
2017-07-31T02:46:35.535Z,18.90
2017-07-31T02:49:05.562Z,18.90
2017-07-31T02:51:33.840Z,18.90
2017-07-31T02:54:02.735Z,18.90
2017-07-31T02:59:00.911Z,18.90
2017-07-31T03:01:30.379Z,18.90
2017-07-31T03:03:58.646Z,18.90
2017-07-31T03:06:26.919Z,18.80
2017-07-31T03:08:55.262Z,18.80
2017-07-31T03:11:23.545Z,18.80
2017-07-31T03:13:52.590Z,18.80
2017-07-31T03:16:20.937Z,18.70
2017-07-31T03:18:49.235Z,18.80
2017-07-31T03:21:19.040Z,18.70
2017-07-31T03:23:47.366Z,18.70
2017-07-31T03:26:17.151Z,18.70
2017-07-31T03:28:45.423Z,18.70
2017-07-31T03:31:13.758Z,18.60
2017-07-31T03:33:43.538Z,18.60
2017-07-31T03:38:41.780Z,18.50
2017-07-31T03:41:10.067Z,18.50
2017-07-31T03:46:09.062Z,18.40
2017-07-31T03:48:37.344Z,18.40
2017-07-31T03:51:07.128Z,18.40
2017-07-31T03:56:05.374Z,18.40
2017-07-31T03:58:34.791Z,18.40
2017-07-31T04:01:03.883Z,18.40
2017-07-31T04:03:32.927Z,18.40
2017-07-31T04:06:01.203Z,18.40
2017-07-31T04:08:29.547Z,18.40
2017-07-31T04:10:59.318Z,18.40
2017-07-31T04:13:27.595Z,18.40
2017-07-31T04:15:56.048Z,18.40
2017-07-31T04:18:25.475Z,18.40
2017-07-31T04:20:54.542Z,18.40
2017-07-31T04:23:22.879Z,18.30
2017-07-31T04:25:52.306Z,18.40
2017-07-31T04:28:20.591Z,18.30
2017-07-31T04:30:49.657Z,18.40
2017-07-31T04:33:18.702Z,18.40
2017-07-31T04:38:17.285Z,18.40
2017-07-31T04:40:46.338Z,18.50
2017-07-31T04:43:15.750Z,18.50
2017-07-31T04:45:44.843Z,18.50
2017-07-31T04:48:13.111Z,18.50
2017-07-31T04:50:41.383Z,18.60
2017-07-31T04:53:10.011Z,18.60
2017-07-31T04:55:39.079Z,18.60
2017-07-31T04:58:08.131Z,18.60
2017-07-31T05:00:37.877Z,18.60
2017-07-31T05:03:06.921Z,18.70
2017-07-31T05:05:35.959Z,18.70
2017-07-31T05:08:04.951Z,18.70
2017-07-31T05:10:34.382Z,18.80
2017-07-31T05:15:32.970Z,18.90
2017-07-31T05:20:31.150Z,19.00
2017-07-31T05:22:59.478Z,19.00
2017-07-31T05:25:28.526Z,19.10
2017-07-31T05:27:56.806Z,19.20
2017-07-31T05:30:25.158Z,19.20
2017-07-31T05:32:53.460Z,19.20
2017-07-31T05:35:21.755Z,19.30
2017-07-31T05:37:51.514Z,19.30
2017-07-31T05:40:19.825Z,19.30
2017-07-31T05:42:48.118Z,19.30
2017-07-31T05:45:16.455Z,19.40
2017-07-31T05:47:45.883Z,19.40
2017-07-31T05:52:44.852Z,19.30
2017-07-31T05:55:14.648Z,19.40
2017-07-31T06:00:12.905Z,19.40
2017-07-31T06:02:43.959Z,19.50
2017-07-31T06:05:12.237Z,19.40
2017-07-31T06:07:40.567Z,19.40
2017-07-31T06:10:10.390Z,19.50
2017-07-31T06:12:38.683Z,19.50
2017-07-31T06:15:06.990Z,19.60
2017-07-31T06:17:36.807Z,19.60
2017-07-31T06:20:05.087Z,19.60
2017-07-31T06:22:33.397Z,19.70
2017-07-31T06:25:03.212Z,19.60
2017-07-31T06:30:02.282Z,19.80
2017-07-31T06:35:00.062Z,19.90
2017-07-31T06:37:28.391Z,20.00
2017-07-31T06:42:26.934Z,20.10
2017-07-31T06:44:55.279Z,20.20
2017-07-31T06:47:24.342Z,20.30
2017-07-31T06:52:22.588Z,20.40
2017-07-31T06:54:50.898Z,20.50
2017-07-31T06:57:19.203Z,20.60
2017-07-31T06:59:48.668Z,20.70
2017-07-31T07:02:16.950Z,20.70
2017-07-31T07:04:45.991Z,20.90
2017-07-31T07:07:15.083Z,21.00
2017-07-31T07:09:43.358Z,21.20
2017-07-31T07:12:12.399Z,21.20
2017-07-31T07:14:41.917Z,21.40
2017-07-31T07:17:10.190Z,21.50
2017-07-31T07:19:38.480Z,21.60
2017-07-31T07:22:06.818Z,21.80
2017-07-31T07:24:35.858Z,21.80
2017-07-31T07:27:04.134Z,21.90
2017-07-31T07:32:02.361Z,22.10
2017-07-31T07:34:30.631Z,22.10
2017-07-31T07:36:58.956Z,22.20
2017-07-31T07:39:28.735Z,22.30
2017-07-31T07:41:58.514Z,22.30
2017-07-31T07:44:26.830Z,22.30
2017-07-31T07:46:55.114Z,22.30
2017-07-31T07:49:23.394Z,22.30
2017-07-31T07:51:52.789Z,22.30
2017-07-31T07:54:21.462Z,22.40
2017-07-31T07:59:20.111Z,22.60
2017-07-31T08:01:48.379Z,22.70
2017-07-31T08:04:16.725Z,22.90
2017-07-31T08:06:44.998Z,23.10
2017-07-31T08:11:43.962Z,23.50
2017-07-31T08:14:12.241Z,23.70
2017-07-31T08:16:40.543Z,23.90
2017-07-31T08:19:10.389Z,24.10
2017-07-31T08:21:38.678Z,24.20
2017-07-31T08:24:06.962Z,24.40
2017-07-31T08:26:35.281Z,24.40
2017-07-31T08:31:33.054Z,24.80
2017-07-31T08:34:01.382Z,24.80
2017-07-31T08:36:29.664Z,25.00
2017-07-31T08:38:57.936Z,25.10
2017-07-31T08:41:26.271Z,25.20
2017-07-31T08:43:54.557Z,25.20
2017-07-31T08:48:53.923Z,25.40
2017-07-31T08:51:22.980Z,25.60
2017-07-31T08:53:52.046Z,25.70
2017-07-31T08:56:20.374Z,25.70
2017-07-31T08:58:48.694Z,25.90
2017-07-31T09:01:18.111Z,26.00
2017-07-31T09:03:46.807Z,26.30
2017-07-31T09:06:16.581Z,26.40
2017-07-31T09:08:44.851Z,26.40
2017-07-31T09:11:13.194Z,26.40
2017-07-31T09:13:41.466Z,26.30
2017-07-31T09:16:09.744Z,26.30
2017-07-31T09:18:38.106Z,26.40
2017-07-31T09:21:07.910Z,26.40
2017-07-31T09:23:36.178Z,26.40
2017-07-31T09:26:05.258Z,26.50
2017-07-31T09:28:33.527Z,26.50
2017-07-31T09:31:02.567Z,26.60
2017-07-31T09:33:31.647Z,26.70
2017-07-31T09:35:59.919Z,26.70
2017-07-31T09:38:28.198Z,26.80
2017-07-31T09:40:58.027Z,26.70
2017-07-31T09:45:56.194Z,26.60
2017-07-31T09:48:24.524Z,26.50
2017-07-31T09:50:54.323Z,26.50
2017-07-31T09:53:23.365Z,26.50
2017-07-31T09:55:51.969Z,26.60
2017-07-31T09:58:21.404Z,26.70
2017-07-31T10:00:49.694Z,26.90
2017-07-31T10:03:18.146Z,27.10
2017-07-31T10:05:47.187Z,27.20
2017-07-31T10:08:16.229Z,27.30
2017-07-31T10:10:44.543Z,27.40
2017-07-31T10:13:13.595Z,27.40
2017-07-31T10:18:11.813Z,27.80
2017-07-31T10:20:41.593Z,28.00
2017-07-31T10:23:09.874Z,28.10
2017-07-31T10:25:39.264Z,28.10
2017-07-31T10:28:07.947Z,28.00
2017-07-31T10:30:36.214Z,28.00
2017-07-31T10:33:05.309Z,27.90
2017-07-31T10:35:36.590Z,27.90
2017-07-31T10:38:04.895Z,27.80
2017-07-31T10:40:33.970Z,27.80
2017-07-31T10:43:03.751Z,27.60
2017-07-31T10:45:33.554Z,27.60
2017-07-31T10:48:01.862Z,27.70
2017-07-31T10:50:30.134Z,27.70
2017-07-31T10:52:59.207Z,27.70
2017-07-31T10:55:27.523Z,27.80
2017-07-31T10:57:55.799Z,27.80
2017-07-31T11:00:24.102Z,27.80
2017-07-31T11:02:53.930Z,27.90
2017-07-31T11:05:23.746Z,27.90
2017-07-31T11:07:52.064Z,27.90
2017-07-31T11:10:20.383Z,27.90
2017-07-31T11:12:48.658Z,27.90
2017-07-31T11:15:16.962Z,27.90
2017-07-31T11:17:45.271Z,27.90
2017-07-31T11:20:14.682Z,27.90
2017-07-31T11:22:42.982Z,27.90
2017-07-31T11:25:11.295Z,27.90
2017-07-31T11:27:39.572Z,27.90
2017-07-31T11:30:07.884Z,27.90
2017-07-31T11:32:37.120Z,27.80
2017-07-31T11:35:06.163Z,27.70
2017-07-31T11:37:35.198Z,27.70
2017-07-31T11:40:03.530Z,27.60
2017-07-31T11:42:31.803Z,27.60
2017-07-31T11:45:00.075Z,27.50
2017-07-31T11:47:28.950Z,27.60
2017-07-31T11:49:57.614Z,27.50
2017-07-31T11:52:25.896Z,27.60
2017-07-31T11:54:54.235Z,27.80
2017-07-31T11:57:22.543Z,27.90
2017-07-31T11:59:52.355Z,28.00
2017-07-31T12:02:20.718Z,28.20
2017-07-31T12:09:49.646Z,28.50
2017-07-31T12:12:18.684Z,28.60
2017-07-31T12:19:47.178Z,28.50
2017-07-31T12:22:15.448Z,28.50
2017-07-31T12:24:43.767Z,28.40
2017-07-31T12:27:13.550Z,28.40
2017-07-31T12:29:41.832Z,28.40
2017-07-31T12:34:39.655Z,28.40
2017-07-31T12:37:07.937Z,28.50
2017-07-31T12:39:36.267Z,28.70
2017-07-31T12:42:04.540Z,28.90
2017-07-31T12:44:32.811Z,29.10
2017-07-31T12:47:01.131Z,29.20
2017-07-31T12:49:29.402Z,29.20
2017-07-31T12:51:58.442Z,29.20
2017-07-31T12:56:57.766Z,29.30
2017-07-31T12:59:26.843Z,29.20
2017-07-31T13:01:55.182Z,29.20
2017-07-31T13:04:23.483Z,29.20
2017-07-31T13:06:51.773Z,29.20
2017-07-31T13:09:21.983Z,29.20
2017-07-31T13:11:51.406Z,29.20
2017-07-31T13:14:19.688Z,29.30
2017-07-31T13:16:48.024Z,29.30
2017-07-31T13:19:16.294Z,29.30
2017-07-31T13:21:44.567Z,29.30
2017-07-31T13:24:12.878Z,29.50
2017-07-31T13:26:42.663Z,29.60
2017-07-31T13:29:10.938Z,29.60
2017-07-31T13:34:09.189Z,29.70
2017-07-31T13:41:36.832Z,29.80
2017-07-31T13:44:05.106Z,29.80
2017-07-31T13:46:34.918Z,29.60
2017-07-31T13:49:03.199Z,29.60
2017-07-31T13:51:31.466Z,29.40
2017-07-31T13:53:59.802Z,29.30
2017-07-31T13:56:28.076Z,29.10
2017-07-31T13:58:56.351Z,29.00
2017-07-31T14:01:24.692Z,28.80
2017-07-31T14:03:54.119Z,28.70
2017-07-31T14:06:22.428Z,28.70
2017-07-31T14:08:50.794Z,28.70
2017-07-31T14:13:49.641Z,28.60
2017-07-31T14:16:18.359Z,28.50
2017-07-31T14:18:47.415Z,28.30
2017-07-31T14:21:16.830Z,28.20
2017-07-31T14:23:45.158Z,28.20
2017-07-31T14:26:13.440Z,28.10
2017-07-31T14:31:11.597Z,28.00
2017-07-31T14:33:41.010Z,27.90
2017-07-31T14:36:09.302Z,27.90
2017-07-31T14:38:37.634Z,27.80
2017-07-31T14:41:05.919Z,27.70
2017-07-31T14:43:34.211Z,27.70
2017-07-31T14:46:04.427Z,27.70
2017-07-31T14:48:34.208Z,27.60
2017-07-31T14:51:02.478Z,27.60
2017-07-31T14:53:30.833Z,27.40
2017-07-31T14:58:28.994Z,27.30
2017-07-31T15:00:57.470Z,27.30
2017-07-31T15:03:26.515Z,27.30
2017-07-31T15:05:54.809Z,27.20
2017-07-31T15:08:24.651Z,27.20
2017-07-31T15:10:52.944Z,27.20
2017-07-31T15:13:21.235Z,27.10
2017-07-31T15:15:49.584Z,27.10
2017-07-31T15:18:17.863Z,27.00
2017-07-31T15:20:47.271Z,27.00
2017-07-31T15:23:15.603Z,26.90
2017-07-31T15:25:43.880Z,26.80
2017-07-31T15:28:12.547Z,26.80
2017-07-31T15:30:42.391Z,26.70
2017-07-31T15:33:10.673Z,26.70
2017-07-31T15:35:38.972Z,26.60
2017-07-31T15:40:37.201Z,26.50
2017-07-31T15:43:06.246Z,26.50
2017-07-31T15:48:04.455Z,26.40
2017-07-31T15:53:02.948Z,26.30
2017-07-31T15:55:31.219Z,26.30
2017-07-31T15:57:59.496Z,26.30
2017-07-31T16:00:27.827Z,26.30
2017-07-31T16:02:56.102Z,26.20
2017-07-31T16:07:53.954Z,26.20
2017-07-31T16:10:22.231Z,26.30
2017-07-31T16:12:50.514Z,26.30
2017-07-31T16:17:48.752Z,26.20
2017-07-31T16:20:17.790Z,26.30
2017-07-31T16:25:16.267Z,26.20
2017-07-31T16:30:14.780Z,26.20
2017-07-31T16:32:44.562Z,26.20
2017-07-31T16:35:12.838Z,26.20
2017-07-31T16:37:41.435Z,26.20
2017-07-31T16:40:17.367Z,26.20
2017-07-31T16:43:03.238Z,26.20
2017-07-31T16:45:51.226Z,26.10
2017-07-31T16:48:31.383Z,26.10
2017-07-31T16:50:59.650Z,26.10
2017-07-31T16:53:27.922Z,26.10
2017-07-31T16:55:56.543Z,26.10
2017-07-31T16:58:26.318Z,26.10
2017-07-31T17:03:24.951Z,26.20
2017-07-31T17:10:52.325Z,26.10
2017-07-31T17:13:20.748Z,26.10
2017-07-31T17:15:49.091Z,26.10
2017-07-31T17:18:17.722Z,26.10
2017-07-31T17:20:46.763Z,26.10
2017-07-31T17:25:44.974Z,26.00
2017-07-31T17:28:14.010Z,25.90
2017-07-31T17:30:43.410Z,25.90
2017-07-31T17:33:11.739Z,25.90
2017-07-31T17:38:10.286Z,25.80
2017-07-31T17:43:09.648Z,25.80
2017-07-31T17:45:38.690Z,25.70
2017-07-31T17:53:06.049Z,25.70
2017-07-31T17:55:34.738Z,25.60
2017-07-31T17:58:04.155Z,25.60
2017-07-31T18:00:32.446Z,25.50
2017-07-31T18:03:00.771Z,25.50
2017-07-31T18:05:29.047Z,25.50
2017-07-31T18:10:27.258Z,25.40
2017-07-31T18:12:55.541Z,25.40
2017-07-31T18:15:23.841Z,25.40
2017-07-31T18:22:52.278Z,25.40
2017-07-31T18:25:20.702Z,25.30
2017-07-31T18:30:18.887Z,25.20
2017-07-31T18:32:48.002Z,25.20
2017-07-31T18:35:16.275Z,25.20
2017-07-31T18:40:15.170Z,25.00
2017-07-31T18:42:44.292Z,25.00
2017-07-31T18:47:43.751Z,24.80
2017-07-31T18:50:12.828Z,24.80
2017-07-31T18:52:41.133Z,24.70
2017-07-31T18:55:09.464Z,24.70
2017-07-31T18:57:37.742Z,24.60
2017-07-31T19:00:06.019Z,24.50
2017-07-31T19:02:35.844Z,24.50
2017-07-31T19:05:04.119Z,24.40
2017-07-31T19:07:32.399Z,24.40
2017-07-31T19:10:01.494Z,24.40
2017-07-31T19:17:29.984Z,24.10
2017-07-31T19:22:28.515Z,23.90
2017-07-31T19:24:56.863Z,23.90
2017-07-31T19:27:25.133Z,23.80
2017-07-31T19:29:53.428Z,23.70
2017-07-31T19:32:22.901Z,23.70
2017-07-31T19:34:51.194Z,23.60
2017-07-31T19:37:20.991Z,23.50
2017-07-31T19:39:49.322Z,23.50
2017-07-31T19:42:17.607Z,23.40
2017-07-31T19:54:52.657Z,23.10
2017-07-31T19:59:53.778Z,23.00
2017-07-31T20:02:22.068Z,23.00
2017-07-31T20:04:50.359Z,22.90
2017-07-31T20:07:18.699Z,22.90
2017-07-31T20:09:46.966Z,22.80
2017-07-31T20:12:15.234Z,22.70
2017-07-31T20:14:44.690Z,22.80
2017-07-31T20:17:12.963Z,22.70
2017-07-31T20:19:41.250Z,22.60
2017-07-31T20:22:09.958Z,22.60
2017-07-31T20:27:07.749Z,22.60
2017-07-31T20:29:36.075Z,22.60
2017-07-31T20:32:04.351Z,22.60
2017-07-31T20:34:33.389Z,22.60
2017-07-31T20:37:01.711Z,22.60
2017-07-31T20:39:31.495Z,22.60
2017-07-31T20:41:59.761Z,22.60
2017-07-31T20:44:28.087Z,22.60
2017-07-31T20:46:56.359Z,22.60
2017-07-31T20:49:26.148Z,22.60
2017-07-31T20:51:54.469Z,22.60
2017-07-31T20:54:22.777Z,22.60
2017-07-31T20:56:51.056Z,22.60
2017-07-31T20:59:20.938Z,22.50
2017-07-31T21:01:49.618Z,22.60
2017-07-31T21:04:19.409Z,22.60
2017-07-31T21:06:47.726Z,22.50
2017-07-31T21:09:16.007Z,22.60
2017-07-31T21:14:14.610Z,22.50
2017-07-31T21:16:43.279Z,22.50
2017-07-31T21:19:11.954Z,22.50
2017-07-31T21:21:41.414Z,22.50
2017-07-31T21:24:10.180Z,22.50
2017-07-31T21:26:39.603Z,22.50
2017-07-31T21:29:08.980Z,22.50
2017-07-31T21:31:38.023Z,22.60
2017-07-31T21:34:08.655Z,22.50
2017-07-31T21:36:36.991Z,22.40
2017-07-31T21:39:05.262Z,22.40
2017-07-31T21:41:34.675Z,22.40
2017-07-31T21:44:05.159Z,22.40
2017-07-31T21:46:33.430Z,22.40
2017-07-31T21:49:01.703Z,22.40
2017-07-31T21:51:32.322Z,22.40
2017-07-31T21:54:00.987Z,22.40
2017-07-31T21:56:30.039Z,22.40
2017-07-31T21:58:58.355Z,22.40
2017-07-31T22:01:27.398Z,22.40
2017-07-31T22:03:55.683Z,22.40
2017-07-31T22:06:24.009Z,22.40
2017-07-31T22:08:53.797Z,22.40
2017-07-31T22:11:22.092Z,22.30
2017-07-31T22:13:50.443Z,22.30
2017-07-31T22:16:24.342Z,22.30
2017-07-31T22:18:53.070Z,22.30
2017-07-31T22:21:28.087Z,22.30
2017-07-31T22:23:56.890Z,22.20
2017-07-31T22:26:25.210Z,22.20
2017-07-31T22:28:53.501Z,22.20
2017-07-31T22:31:22.281Z,22.20
2017-07-31T22:33:50.975Z,22.20
2017-07-31T22:36:20.041Z,22.20
2017-07-31T22:38:49.169Z,22.20
2017-07-31T22:41:18.214Z,22.20
2017-07-31T22:43:47.255Z,22.20
2017-07-31T22:46:15.603Z,22.20
2017-07-31T22:51:13.366Z,22.20
2017-07-31T22:53:41.707Z,22.20
2017-07-31T22:56:10.771Z,22.20
2017-07-31T22:58:39.838Z,22.20
2017-07-31T23:01:08.160Z,22.20
2017-07-31T23:03:36.435Z,22.30
2017-07-31T23:06:05.107Z,22.20
2017-07-31T23:08:33.439Z,22.20
2017-07-31T23:11:03.223Z,22.30
2017-07-31T23:13:31.507Z,22.20
2017-07-31T23:18:29.714Z,22.20
2017-07-31T23:20:58.756Z,22.10
2017-07-31T23:23:27.075Z,22.00
2017-07-31T23:28:25.635Z,22.00
2017-07-31T23:30:55.497Z,22.00
2017-07-31T23:33:23.795Z,22.00
2017-07-31T23:35:52.103Z,22.00
2017-07-31T23:38:20.449Z,21.90
2017-07-31T23:40:49.875Z,21.90
2017-07-31T23:43:18.146Z,21.90
2017-07-31T23:45:46.478Z,21.80
2017-07-31T23:48:14.755Z,21.80
2017-07-31T23:50:43.027Z,21.80
2017-07-31T23:53:11.631Z,21.70
2017-07-31T23:55:40.331Z,21.70
2017-07-31T23:58:08.616Z,21.60
